Time;durP1;ratioP1;P1;durP2;ratioP2;P2;SDS_P1;SDS_P2;PMS_P1;PMS_P2;Temp;Humidity;BMP_temperature;BMP_pressure;BME280_temperature;BME280_humidity;BME280_pressure;Samples;Min_cycle;Max_cycle;Signal;HPM_P1;HPM_P2
2023/07/30 00:00:17;;;;;;;;;;;;;;;17.93;79.05;100089.66;107839;1254;73509;-71
2023/07/30 00:02:45;;;;;;;;;;;;;;;17.93;79.20;100092.68;107874;1259;73224;-71
2023/07/30 00:05:11;;;;;;;;;;;;;;;17.94;79.41;100094.13;107902;1253;72761;-71
2023/07/30 00:07:38;;;;;;;;;;;;;;;17.97;79.35;100096.17;107905;1254;62094;-71
2023/07/30 00:10:06;;;;;;;;;;;;;;;18.01;79.43;100094.20;108664;1254;59301;-72
2023/07/30 00:12:33;;;;;;;;;;;;;;;18.07;79.35;100093.39;108371;1254;74706;-71
2023/07/30 00:14:59;;;;;;;;;;;;;;;18.10;79.07;100094.59;107815;1256;72099;-71
2023/07/30 00:17:27;;;;;;;;;;;;;;;18.09;78.82;100090.54;107831;1258;73009;-71
2023/07/30 00:19:54;;;;;;;;;;;;;;;18.06;78.53;100086.77;107893;1256;63024;-71
2023/07/30 00:22:21;;;;;;;;;;;;;;;18.01;78.47;100083.08;107846;1254;61260;-73
2023/07/30 00:24:51;;;;;;;;;;;;;;;17.99;78.55;100080.98;107895;1254;74980;-72
2023/07/30 00:27:18;;;;;;;;;;;;;;;17.98;78.40;100080.64;108036;1254;74851;-72
2023/07/30 00:29:48;;;;;;;;;;;;;;;18.03;78.14;100076.52;108210;1259;72791;-72
2023/07/30 00:32:16;;;;;;;;;;;;;;;18.13;77.59;100066.48;108137;1254;63305;-72
2023/07/30 00:34:43;;;;;;;;;;;;;;;18.14;77.27;100066.45;108191;1254;59864;-73
2023/07/30 00:37:11;;;;;;;;;;;;;;;18.03;77.29;100067.02;107914;1254;76614;-73
2023/07/30 00:39:39;;;;;;;;;;;;;;;18.09;77.13;100066.99;108028;1254;72570;-73
2023/07/30 00:42:06;;;;;;;;;;;;;;;18.11;76.74;100064.92;107901;1254;73833;-72
2023/07/30 00:44:33;;;;;;;;;;;;;;;18.06;76.45;100060.82;108026;1254;63189;-72
2023/07/30 00:47:00;;;;;;;;;;;;;;;17.99;76.57;100065.56;85607;1254;20002874;-73
2023/07/30 00:49:27;;;;;;;;;;;;;;;17.93;76.59;100065.27;107799;1254;73770;-73
2023/07/30 00:51:56;;;;;;;;;;;;;;;17.91;76.62;100064.42;108197;1254;73921;-73
2023/07/30 00:54:23;;;;;;;;;;;;;;;17.89;76.62;100063.40;108104;1256;71405;-74
2023/07/30 00:56:52;;;;;;;;;;;;;;;17.87;76.63;100063.38;108031;1254;62050;-73
2023/07/30 00:59:20;;;;;;;;;;;;;;;17.84;76.69;100062.96;108170;1254;61198;-71
2023/07/30 01:01:47;;;;;;;;;;;;;;;17.83;76.63;100061.96;107995;1257;74970;-72
2023/07/30 01:04:15;;;;;;;;;;;;;;;17.73;76.58;100059.72;108372;1254;72809;-72
2023/07/30 01:06:43;;;;;;;;;;;;;;;17.67;76.80;100059.22;108062;1254;71184;-73
2023/07/30 01:09:10;;;;;;;;;;;;;;;17.68;76.69;100060.47;107868;1255;61137;-73
2023/07/30 01:11:37;;;;;;;;;;;;;;;17.66;76.37;100059.99;107694;1255;61103;-71
2023/07/30 01:14:05;;;;;;;;;;;;;;;17.48;76.58;100057.96;107858;1259;74678;-70
2023/07/30 01:16:31;;;;;;;;;;;;;;;17.31;76.99;100061.96;107657;1260;71227;-71
2023/07/30 01:19:04;;;;;;;;;;;;;;;17.26;77.17;100066.16;107963;1254;73608;-71
2023/07/30 01:21:34;;;;;;;;;;;;;;;17.38;76.91;100062.27;107903;1254;62025;-70
2023/07/30 01:24:01;;;;;;;;;;;;;;;17.40;76.70;100061.29;107951;1256;61218;-71
2023/07/30 01:26:32;;;;;;;;;;;;;;;17.40;76.54;100056.57;107922;1258;74798;-71
2023/07/30 01:29:01;;;;;;;;;;;;;;;17.39;76.59;100055.84;107913;1258;74022;-70
2023/07/30 01:31:30;;;;;;;;;;;;;;;17.31;76.52;100057.39;107906;1254;72749;-72
2023/07/30 01:33:58;;;;;;;;;;;;;;;17.17;76.56;100055.88;107923;1254;62134;-72
2023/07/30 01:36:25;;;;;;;;;;;;;;;17.08;76.98;100056.55;107930;1259;60192;-72
2023/07/30 01:38:52;;;;;;;;;;;;;;;17.05;77.22;100058.71;107923;1258;74737;-72
2023/07/30 01:41:20;;;;;;;;;;;;;;;17.04;77.34;100059.37;107663;1254;72692;-72
2023/07/30 01:43:46;;;;;;;;;;;;;;;17.05;77.48;100063.89;107997;1259;72913;-72
2023/07/30 01:46:13;;;;;;;;;;;;;;;17.06;77.51;100064.10;107822;1255;61269;-72
2023/07/30 01:48:40;;;;;;;;;;;;;;;17.07;77.46;100073.61;107938;1254;61295;-72
2023/07/30 01:51:06;;;;;;;;;;;;;;;17.07;77.41;100070.52;107681;1254;74508;-72
2023/07/30 01:53:33;;;;;;;;;;;;;;;17.06;77.41;100064.70;107766;1260;72557;-72
2023/07/30 01:56:00;;;;;;;;;;;;;;;17.06;77.39;100068.64;107883;1254;72328;-72
2023/07/30 01:58:27;;;;;;;;;;;;;;;17.06;77.37;100067.56;107931;1254;62688;-72
2023/07/30 02:00:54;;;;;;;;;;;;;;;17.05;77.44;100065.34;108309;1255;61088;-72
2023/07/30 02:03:21;;;;;;;;;;;;;;;17.05;77.42;100070.99;107970;1254;74955;-72
2023/07/30 02:05:49;;;;;;;;;;;;;;;16.98;77.55;100076.59;107937;1254;71373;-72
2023/07/30 02:08:16;;;;;;;;;;;;;;;17.01;77.42;100073.11;108005;1254;72578;-71
2023/07/30 02:10:43;;;;;;;;;;;;;;;16.96;77.43;100075.08;107922;1254;61911;-72
2023/07/30 02:13:11;;;;;;;;;;;;;;;16.91;77.48;100076.03;107920;1254;61128;-72
2023/07/30 02:15:42;;;;;;;;;;;;;;;16.90;77.65;100073.17;107980;1256;75010;-72
2023/07/30 02:18:10;;;;;;;;;;;;;;;16.92;77.61;100076.01;107684;1260;71258;-72
2023/07/30 02:20:37;;;;;;;;;;;;;;;16.92;77.75;100074.74;107931;1254;72359;-72
2023/07/30 02:23:03;;;;;;;;;;;;;;;16.94;77.72;100077.89;107747;1255;62075;-72
2023/07/30 02:25:30;;;;;;;;;;;;;;;16.92;77.62;100075.51;107987;1254;61330;-71
2023/07/30 02:27:58;;;;;;;;;;;;;;;16.83;77.63;100072.20;107972;1255;74675;-72
2023/07/30 02:30:25;;;;;;;;;;;;;;;16.76;77.95;100078.45;108136;1256;74103;-72
2023/07/30 02:32:52;;;;;;;;;;;;;;;16.70;78.13;100078.70;107846;1254;73652;-73
2023/07/30 02:35:19;;;;;;;;;;;;;;;16.70;78.36;100084.51;107871;1254;61908;-72
2023/07/30 02:37:45;;;;;;;;;;;;;;;16.72;78.42;100085.66;107971;1254;61758;-72
2023/07/30 02:40:12;;;;;;;;;;;;;;;16.75;78.57;100093.69;107993;1257;75326;-71
2023/07/30 02:42:39;;;;;;;;;;;;;;;16.77;78.62;100099.89;107918;1256;72847;-71
2023/07/30 02:45:06;;;;;;;;;;;;;;;16.78;78.64;100101.33;107897;1254;72669;-71
2023/07/30 02:47:33;;;;;;;;;;;;;;;16.80;78.65;100099.50;108282;1254;61845;-72
2023/07/30 02:50:01;;;;;;;;;;;;;;;16.82;78.57;100098.52;109153;1254;60607;-71
2023/07/30 02:52:29;;;;;;;;;;;;;;;16.84;78.59;100101.16;107891;1256;73379;-72
2023/07/30 02:54:55;;;;;;;;;;;;;;;16.85;78.51;100107.42;107831;1254;72534;-71
2023/07/30 02:57:23;;;;;;;;;;;;;;;16.83;78.43;100108.39;107722;1260;72587;-72
2023/07/30 02:59:50;;;;;;;;;;;;;;;16.81;78.55;100109.48;107946;1258;61834;-71
2023/07/30 03:02:17;;;;;;;;;;;;;;;16.80;78.76;100111.84;108934;1254;61208;-72
2023/07/30 03:04:46;;;;;;;;;;;;;;;16.85;78.93;100112.54;108683;1257;74686;-72
2023/07/30 03:07:13;;;;;;;;;;;;;;;16.94;78.96;100106.11;108021;1255;72980;-72
2023/07/30 03:09:40;;;;;;;;;;;;;;;17.01;79.17;100097.61;107942;1257;73257;-71
2023/07/30 03:12:07;;;;;;;;;;;;;;;17.08;79.14;100099.41;107837;1254;63169;-72
2023/07/30 03:14:34;;;;;;;;;;;;;;;17.16;79.18;100103.26;108371;1254;61267;-71
2023/07/30 03:17:01;;;;;;;;;;;;;;;17.22;79.27;100106.93;107922;1254;75125;-72
2023/07/30 03:19:28;;;;;;;;;;;;;;;17.28;79.31;100109.77;107771;1256;72749;-71
2023/07/30 03:21:55;;;;;;;;;;;;;;;17.37;79.45;100109.58;107710;1256;72704;-71
2023/07/30 03:24:21;;;;;;;;;;;;;;;17.46;79.27;100109.48;107926;1257;61938;-72
2023/07/30 03:26:49;;;;;;;;;;;;;;;17.55;79.39;100110.92;107914;1257;61413;-71
2023/07/30 03:29:15;;;;;;;;;;;;;;;17.66;79.38;100113.24;107930;1254;75531;-72
2023/07/30 03:31:42;;;;;;;;;;;;;;;17.75;79.26;100114.54;107884;1254;72653;-72
2023/07/30 03:34:09;;;;;;;;;;;;;;;17.85;79.28;100110.46;107683;1257;73217;-72
2023/07/30 03:36:36;;;;;;;;;;;;;;;17.92;79.19;100109.88;107890;1254;63125;-72
2023/07/30 03:39:03;;;;;;;;;;;;;;;17.99;79.13;100113.52;107831;1254;61079;-73
2023/07/30 03:41:32;;;;;;;;;;;;;;;18.07;79.12;100110.05;108035;1254;74734;-72
2023/07/30 03:43:59;;;;;;;;;;;;;;;18.13;79.15;100109.52;108063;1254;72785;-72
2023/07/30 03:46:26;;;;;;;;;;;;;;;18.15;79.01;100104.91;107850;1254;71789;-73
2023/07/30 03:48:53;;;;;;;;;;;;;;;18.15;79.07;100092.96;107772;1254;62212;-72
2023/07/30 03:51:22;;;;;;;;;;;;;;;18.17;79.18;100096.20;107973;1254;61270;-72
2023/07/30 03:53:50;;;;;;;;;;;;;;;18.24;79.06;100095.27;108080;1257;74510;-72
2023/07/30 03:56:17;;;;;;;;;;;;;;;18.32;79.12;100093.23;108018;1254;72875;-72
2023/07/30 03:58:44;;;;;;;;;;;;;;;18.41;79.27;100091.09;108040;1258;72572;-72
2023/07/30 04:01:11;;;;;;;;;;;;;;;18.51;79.49;100088.57;107992;1254;61221;-72
2023/07/30 04:03:39;;;;;;;;;;;;;;;18.62;79.40;100093.50;107885;1254;61301;-72
2023/07/30 04:06:06;;;;;;;;;;;;;;;18.70;79.45;100089.31;108036;1255;73460;-74
2023/07/30 04:08:32;;;;;;;;;;;;;;;18.82;79.50;100093.45;107945;1256;61035;-73
2023/07/30 04:10:59;;;;;;;;;;;;;;;18.96;79.42;100090.15;108042;1254;61704;-73
2023/07/30 04:13:26;;;;;;;;;;;;;;;19.12;79.45;100089.20;108051;1256;60641;-72
2023/07/30 04:15:53;;;;;;;;;;;;;;;19.26;79.24;100094.16;107964;1256;60223;-73
2023/07/30 04:18:20;;;;;;;;;;;;;;;19.35;79.03;100093.56;108028;1254;74418;-72
2023/07/30 04:20:47;;;;;;;;;;;;;;;19.42;78.77;100096.05;93002;1257;20002141;-73
2023/07/30 04:23:14;;;;;;;;;;;;;;;19.52;78.72;100089.84;107903;1254;61359;-72
2023/07/30 04:25:40;;;;;;;;;;;;;;;19.65;78.48;100089.33;107913;1254;61250;-73
2023/07/30 04:28:09;;;;;;;;;;;;;;;19.76;78.43;100095.58;107759;1254;72393;-73
2023/07/30 04:30:36;;;;;;;;;;;;;;;19.88;78.29;100094.25;107670;1257;61152;-73
2023/07/30 04:33:03;;;;;;;;;;;;;;;20.01;78.24;100088.36;107675;1254;61192;-73
2023/07/30 04:35:30;;;;;;;;;;;;;;;20.14;78.13;100085.97;107959;1254;74654;-73
2023/07/30 04:37:59;;;;;;;;;;;;;;;20.27;78.00;100084.52;107928;1258;71421;-71
2023/07/30 04:40:27;;;;;;;;;;;;;;;20.40;77.62;100084.65;107903;1254;72345;-72
2023/07/30 04:42:53;;;;;;;;;;;;;;;20.54;77.49;100083.29;107950;1255;62241;-72
2023/07/30 04:45:20;;;;;;;;;;;;;;;20.68;77.16;100085.15;107896;1254;61223;-71
2023/07/30 04:47:48;;;;;;;;;;;;;;;20.82;76.77;100086.11;107712;1254;73420;-72
2023/07/30 04:50:15;;;;;;;;;;;;;;;20.96;76.32;100086.24;107975;1254;72740;-73
2023/07/30 04:52:42;;;;;;;;;;;;;;;21.07;75.81;100086.00;107951;1255;74052;-71
2023/07/30 04:55:09;;;;;;;;;;;;;;;21.19;75.36;100087.77;108059;1254;62200;-71
2023/07/30 04:57:36;;;;;;;;;;;;;;;21.28;74.61;100086.19;107998;1254;61137;-71
2023/07/30 05:00:03;;;;;;;;;;;;;;;21.36;73.95;100080.63;107699;1254;74926;-71
2023/07/30 05:02:30;;;;;;;;;;;;;;;21.42;73.18;100082.84;107911;1254;72825;-71
2023/07/30 05:04:57;;;;;;;;;;;;;;;21.48;72.89;100081.08;108000;1254;72653;-72
2023/07/30 05:07:24;;;;;;;;;;;;;;;21.56;72.66;100086.78;107822;1254;61900;-72
2023/07/30 05:09:51;;;;;;;;;;;;;;;21.68;72.37;100086.98;108013;1254;61190;-72
2023/07/30 05:12:18;;;;;;;;;;;;;;;21.81;71.98;100083.29;107979;1256;74560;-72
2023/07/30 05:14:44;;;;;;;;;;;;;;;21.97;71.26;100080.58;107769;1254;72824;-72
2023/07/30 05:17:11;;;;;;;;;;;;;;;22.13;70.70;100074.29;107802;1254;72766;-72
2023/07/30 05:19:38;;;;;;;;;;;;;;;22.28;70.20;100079.21;108013;1254;62714;-72
2023/07/30 05:22:07;;;;;;;;;;;;;;;22.40;69.41;100080.86;108054;1256;61129;-71
2023/07/30 05:24:36;;;;;;;;;;;;;;;22.53;68.85;100078.09;107965;1254;74584;-71
2023/07/30 05:27:03;;;;;;;;;;;;;;;22.63;68.24;100071.81;107966;1254;72798;-71
2023/07/30 05:29:33;;;;;;;;;;;;;;;22.74;67.96;100067.05;108039;1258;72541;-71
2023/07/30 05:31:59;;;;;;;;;;;;;;;22.82;67.14;100067.48;107933;1254;61788;-71
2023/07/30 05:34:26;;;;;;;;;;;;;;;22.84;66.61;100070.34;107985;1254;60149;-71
2023/07/30 05:36:53;;;;;;;;;;;;;;;22.92;66.27;100067.98;107941;1258;75909;-72
2023/07/30 05:39:20;;;;;;;;;;;;;;;23.03;66.11;100064.42;107948;1259;73122;-72
2023/07/30 05:41:46;;;;;;;;;;;;;;;23.12;65.23;100064.34;108046;1254;61206;-71
2023/07/30 05:44:13;;;;;;;;;;;;;;;23.22;64.45;100070.80;107896;1259;61149;-72
2023/07/30 05:46:40;;;;;;;;;;;;;;;23.32;63.88;100066.67;108001;1256;61180;-72
2023/07/30 05:49:06;;;;;;;;;;;;;;;23.44;62.96;100065.23;108057;1254;74449;-73
2023/07/30 05:51:33;;;;;;;;;;;;;;;23.55;62.35;100065.48;107961;1254;72616;-73
2023/07/30 05:54:00;;;;;;;;;;;;;;;23.66;61.74;100063.20;107934;1255;71792;-72
2023/07/30 05:56:27;;;;;;;;;;;;;;;23.76;61.21;100063.37;107962;1254;61180;-72
2023/07/30 05:58:54;;;;;;;;;;;;;;;23.86;60.52;100072.23;107945;1254;59965;-73
2023/07/30 06:01:20;;;;;;;;;;;;;;;23.93;59.68;100071.13;107947;1257;75768;-72
2023/07/30 06:03:47;;;;;;;;;;;;;;;23.95;59.18;100068.29;107943;1254;72865;-72
2023/07/30 06:06:15;;;;;;;;;;;;;;;24.02;59.21;100066.16;107969;1254;72735;-72
2023/07/30 06:08:41;;;;;;;;;;;;;;;24.13;59.34;100060.77;107964;1254;61228;-74
2023/07/30 06:11:08;;;;;;;;;;;;;;;24.26;59.21;100058.97;107968;1254;61219;-72
2023/07/30 06:13:35;;;;;;;;;;;;;;;24.40;59.16;100057.69;108011;1255;74623;-72
2023/07/30 06:16:02;;;;;;;;;;;;;;;24.56;58.57;100057.76;107987;1254;72670;-72
2023/07/30 06:18:29;;;;;;;;;;;;;;;24.72;58.18;100051.41;108001;1254;72780;-71
2023/07/30 06:20:55;;;;;;;;;;;;;;;24.89;58.04;100051.98;107935;1254;61228;-72
2023/07/30 06:23:22;;;;;;;;;;;;;;;25.06;57.58;100046.86;107987;1258;61151;-72
2023/07/30 06:25:49;;;;;;;;;;;;;;;25.21;56.62;100043.05;107827;1257;74832;-71
2023/07/30 06:28:16;;;;;;;;;;;;;;;25.33;55.85;100042.14;107851;1258;73154;-71
2023/07/30 06:30:43;;;;;;;;;;;;;;;25.47;55.50;100040.38;107974;1254;72672;-73
2023/07/30 06:33:09;;;;;;;;;;;;;;;25.59;55.04;100042.64;107882;1254;61141;-72
2023/07/30 06:35:36;;;;;;;;;;;;;;;25.71;54.74;100039.29;107935;1254;61861;-72
2023/07/30 06:38:07;;;;;;;;;;;;;;;25.81;53.76;100039.65;107809;1254;75398;-71
2023/07/30 06:40:34;;;;;;;;;;;;;;;25.76;52.55;100040.67;107943;1257;71289;-72
2023/07/30 06:43:00;;;;;;;;;;;;;;;25.67;52.31;100041.66;107707;1256;71364;-71
2023/07/30 06:45:28;;;;;;;;;;;;;;;25.57;52.49;100039.95;107678;1260;61077;-72
2023/07/30 06:47:54;;;;;;;;;;;;;;;25.48;52.58;100038.36;107967;1254;61141;-72
2023/07/30 06:50:21;;;;;;;;;;;;;;;25.45;52.55;100037.54;107987;1254;74737;-72
2023/07/30 06:52:48;;;;;;;;;;;;;;;25.47;52.99;100040.38;107887;1254;72790;-73
2023/07/30 06:55:15;;;;;;;;;;;;;;;25.46;52.57;100037.02;107896;1257;72520;-72
2023/07/30 06:57:41;;;;;;;;;;;;;;;25.54;53.02;100034.45;107945;1259;61156;-73
2023/07/30 07:00:08;;;;;;;;;;;;;;;25.66;52.37;100032.34;107854;1254;60280;-72
2023/07/30 07:02:36;;;;;;;;;;;;;;;25.78;52.65;100027.02;107884;1254;75636;-71
2023/07/30 07:05:03;;;;;;;;;;;;;;;25.89;52.75;100028.58;107884;1254;72809;-71
2023/07/30 07:07:30;;;;;;;;;;;;;;;26.03;52.32;100031.16;107897;1257;72604;-73
2023/07/30 07:09:57;;;;;;;;;;;;;;;26.16;51.55;100028.48;107860;1255;61833;-72
2023/07/30 07:12:24;;;;;;;;;;;;;;;26.30;51.15;100026.43;107976;1255;61322;-73
2023/07/30 07:14:51;;;;;;;;;;;;;;;26.46;50.99;100026.90;107985;1255;74679;-71
2023/07/30 07:17:17;;;;;;;;;;;;;;;26.60;50.83;100022.43;107918;1254;72438;-72
2023/07/30 07:19:44;;;;;;;;;;;;;;;26.76;50.45;100022.56;108019;1257;72795;-72
2023/07/30 07:22:11;;;;;;;;;;;;;;;26.91;50.35;100030.27;107906;1254;61467;-71
2023/07/30 07:24:38;;;;;;;;;;;;;;;27.06;49.68;100027.63;107925;1255;61161;-72
2023/07/30 07:27:05;;;;;;;;;;;;;;;27.17;49.23;100028.66;107895;1257;74024;-72
2023/07/30 07:29:31;;;;;;;;;;;;;;;27.31;49.15;100029.08;107985;1254;72758;-72
2023/07/30 07:32:00;;;;;;;;;;;;;;;27.48;49.15;100028.77;107961;1254;72713;-72
2023/07/30 07:34:28;;;;;;;;;;;;;;;27.66;49.09;100024.54;108021;1254;61217;-72
2023/07/30 07:36:54;;;;;;;;;;;;;;;27.85;48.54;100021.17;108031;1254;59950;-72
2023/07/30 07:39:21;;;;;;;;;;;;;;;28.00;48.11;100022.02;108017;1258;66327;-72
2023/07/30 07:41:48;;;;;;;;;;;;;;;28.12;47.68;100023.46;107825;1254;63985;-72
2023/07/30 07:44:15;;;;;;;;;;;;;;;28.21;47.22;100024.42;107894;1259;64150;-72
2023/07/30 07:46:41;;;;;;;;;;;;;;;28.25;46.83;100026.63;107909;1254;61232;-73
2023/07/30 07:49:08;;;;;;;;;;;;;;;28.31;46.11;100025.77;107890;1254;61135;-72
2023/07/30 07:51:35;;;;;;;;;;;;;;;28.44;46.27;100025.49;107960;1256;61019;-72
2023/07/30 07:54:03;;;;;;;;;;;;;;;28.62;46.07;100024.27;107971;1254;65305;-72
2023/07/30 07:56:31;;;;;;;;;;;;;;;28.79;45.33;100021.73;107915;1258;64247;-73
2023/07/30 07:58:59;;;;;;;;;;;;;;;28.92;44.61;100018.58;107922;1255;61208;-71
2023/07/30 08:01:26;;;;;;;;;;;;;;;29.04;44.54;100011.75;108048;1256;61029;-72
2023/07/30 08:03:53;;;;;;;;;;;;;;;29.16;44.53;100007.02;107930;1254;65862;-72
2023/07/30 08:06:20;;;;;;;;;;;;;;;29.27;44.21;100002.73;107910;1257;65179;-71
2023/07/30 08:08:47;;;;;;;;;;;;;;;29.37;43.60;99997.67;107967;1257;63964;-71
2023/07/30 08:11:14;;;;;;;;;;;;;;;29.49;43.15;99998.58;107920;1255;59004;-71
2023/07/30 08:13:42;;;;;;;;;;;;;;;29.55;43.05;99993.60;107960;1254;58549;-71
2023/07/30 08:16:09;;;;;;;;;;;;;;;29.58;42.97;99989.83;107986;1254;65926;-72
2023/07/30 08:18:35;;;;;;;;;;;;;;;29.67;42.35;99990.84;107952;1257;64217;-72
2023/07/30 08:21:02;;;;;;;;;;;;;;;29.75;42.51;99990.08;107874;1254;73940;-72
2023/07/30 08:23:29;;;;;;;;;;;;;;;29.89;42.07;99988.98;107959;1257;61228;-71
2023/07/30 08:25:58;;;;;;;;;;;;;;;30.00;41.80;99991.36;107946;1254;61138;-71
2023/07/30 08:28:26;;;;;;;;;;;;;;;30.11;41.63;99990.50;107936;1256;67316;-72
2023/07/30 08:30:59;;;;;;;;;;;;;;;30.16;41.24;99989.38;107988;1258;63976;-71
2023/07/30 08:33:26;;;;;;;;;;;;;;;30.23;41.34;99989.50;107890;1257;62751;-71
2023/07/30 08:35:56;;;;;;;;;;;;;;;30.37;40.22;99987.90;107918;1255;61241;-72
2023/07/30 08:38:23;;;;;;;;;;;;;;;30.42;39.14;99992.11;107844;1256;59857;-72
2023/07/30 08:40:50;;;;;;;;;;;;;;;30.23;39.85;99993.58;107794;1255;66285;-72
2023/07/30 08:43:20;;;;;;;;;;;;;;;30.20;39.97;99986.52;107885;1256;63125;-72
2023/07/30 08:45:47;;;;;;;;;;;;;;;30.12;40.15;99981.67;107811;1257;63982;-73
2023/07/30 08:48:13;;;;;;;;;;;;;;;29.92;40.61;99985.89;107951;1257;61090;-72
2023/07/30 08:50:40;;;;;;;;;;;;;;;29.93;40.82;99990.93;107872;1261;61078;-71
2023/07/30 08:53:07;;;;;;;;;;;;;;;29.96;40.89;99991.95;107907;1257;65477;-72
2023/07/30 08:55:34;;;;;;;;;;;;;;;29.86;40.21;99994.73;107860;1259;64007;-71
2023/07/30 08:58:01;;;;;;;;;;;;;;;29.64;40.35;99997.27;107969;1254;63774;-72
2023/07/30 09:00:29;;;;;;;;;;;;;;;29.37;41.29;99994.46;107929;1256;61231;-71
2023/07/30 09:02:59;;;;;;;;;;;;;;;29.18;42.02;99996.09;107980;1254;61840;-71
2023/07/30 09:05:28;;;;;;;;;;;;;;;28.94;42.37;99998.08;107953;1254;64822;-71
2023/07/30 09:07:56;;;;;;;;;;;;;;;28.71;43.20;99998.81;107960;1254;63820;-72
2023/07/30 09:10:22;;;;;;;;;;;;;;;28.46;43.56;99997.88;107980;1257;64070;-71
2023/07/30 09:12:52;;;;;;;;;;;;;;;28.27;44.01;99996.89;107980;1257;61113;-71
2023/07/30 09:15:19;;;;;;;;;;;;;;;27.99;44.73;99998.17;107939;1257;60299;-72
2023/07/30 09:17:46;;;;;;;;;;;;;;;27.87;44.85;99996.89;107850;1256;67403;-71
2023/07/30 09:20:13;;;;;;;;;;;;;;;27.77;45.34;99998.34;107978;1254;64012;-71
2023/07/30 09:22:40;;;;;;;;;;;;;;;27.66;45.41;99996.08;107972;1255;71432;-72
2023/07/30 09:25:08;;;;;;;;;;;;;;;27.54;45.92;99996.73;107940;1254;60580;-71
2023/07/30 09:27:34;;;;;;;;;;;;;;;27.49;46.10;99995.86;108004;1254;61083;-71
2023/07/30 09:30:02;;;;;;;;;;;;;;;27.45;46.59;99998.90;108018;1257;64767;-71
2023/07/30 09:32:30;;;;;;;;;;;;;;;27.30;47.11;100005.33;107905;1256;72732;-70
2023/07/30 09:35:05;;;;;;;;;;;;;;;27.14;47.82;100001.63;107912;1256;72558;-70
2023/07/30 09:37:33;;;;;;;;;;;;;;;27.12;48.43;100002.77;107988;1254;61250;-71
2023/07/30 09:39:59;;;;;;;;;;;;;;;27.14;48.80;100006.73;107966;1255;61141;-72
2023/07/30 09:42:26;;;;;;;;;;;;;;;27.11;49.11;100000.19;107836;1259;74666;-72
2023/07/30 09:44:53;;;;;;;;;;;;;;;27.03;49.18;100002.80;107927;1254;63873;-72
2023/07/30 09:47:19;;;;;;;;;;;;;;;26.95;49.50;99998.44;107900;1257;59920;-71
2023/07/30 09:49:46;;;;;;;;;;;;;;;26.88;49.83;99996.52;107958;1254;61145;-72
2023/07/30 09:52:13;;;;;;;;;;;;;;;26.81;50.32;99996.55;107979;1255;61094;-71
2023/07/30 09:54:40;;;;;;;;;;;;;;;26.73;49.69;99996.00;107960;1254;74658;-72
2023/07/30 09:57:07;;;;;;;;;;;;;;;26.56;49.97;99998.23;107905;1256;72911;-72
2023/07/30 09:59:33;;;;;;;;;;;;;;;26.41;50.58;99996.42;107826;1257;71406;-76
2023/07/30 10:02:00;;;;;;;;;;;;;;;26.34;51.20;99995.27;107641;1255;61313;-78
2023/07/30 10:04:27;;;;;;;;;;;;;;;26.30;51.86;99989.67;107640;1254;61226;-77
2023/07/30 10:07:01;;;;;;;;;;;;;;;26.24;52.64;99987.18;107956;1257;73270;-78
2023/07/30 10:09:29;;;;;;;;;;;;;;;26.19;53.33;99982.84;107753;1257;71352;-77
2023/07/30 10:11:56;;;;;;;;;;;;;;;26.15;53.74;99979.84;107673;1257;72928;-77
2023/07/30 10:14:23;;;;;;;;;;;;;;;26.07;54.14;99977.33;107879;1254;61253;-77
2023/07/30 10:16:57;;;;;;;;;;;;;;;25.99;55.02;99965.83;96677;1259;10002336;-79
2023/07/30 10:19:27;;;;;;;;;;;;;;;26.00;56.10;99961.46;107747;1254;60093;-79
2023/07/30 10:22:20;;;;;;;;;;;;;;;26.02;56.55;99959.21;107900;1257;73071;-80
2023/07/30 10:24:56;;;;;;;;;;;;;;;26.14;57.14;99958.64;107694;1254;61206;-80
2023/07/30 10:27:23;;;;;;;;;;;;;;;26.33;57.34;99953.08;107764;1258;61137;-81
2023/07/30 10:29:50;;;;;;;;;;;;;;;26.55;57.43;99948.05;107851;1254;74516;-78
2023/07/30 10:32:16;;;;;;;;;;;;;;;26.78;57.11;99946.02;107752;1256;72528;-80
2023/07/30 10:34:44;;;;;;;;;;;;;;;27.03;56.33;99944.29;107860;1256;72617;-82
2023/07/30 10:37:11;;;;;;;;;;;;;;;27.29;55.72;99942.73;107737;1254;61405;-80
2023/07/30 10:39:37;;;;;;;;;;;;;;;27.56;55.12;99949.41;107848;1256;61847;-81
2023/07/30 10:42:05;;;;;;;;;;;;;;;27.80;54.71;99949.98;107826;1257;75098;-78
2023/07/30 10:44:33;;;;;;;;;;;;;;;27.95;54.30;99954.08;107695;1257;73814;-79
2023/07/30 10:47:00;;;;;;;;;;;;;;;28.08;53.74;99952.23;107955;1258;72952;-80
2023/07/30 10:49:28;;;;;;;;;;;;;;;28.26;52.41;99954.44;107906;1254;61339;-81
2023/07/30 10:51:57;;;;;;;;;;;;;;;28.43;51.72;99951.17;107745;1256;61110;-81
2023/07/30 10:54:23;;;;;;;;;;;;;;;28.60;51.18;99949.19;107878;1258;65999;-79
2023/07/30 10:56:50;;;;;;;;;;;;;;;28.80;50.24;99941.08;107825;1259;65227;-80
2023/07/30 10:59:17;;;;;;;;;;;;;;;28.99;49.54;99937.36;107698;1254;64245;-81
2023/07/30 11:01:44;;;;;;;;;;;;;;;29.18;49.20;99934.56;107729;1254;59646;-80
2023/07/30 11:04:16;;;;;;;;;;;;;;;29.36;48.54;99938.20;107846;1256;61288;-80
2023/07/30 11:06:49;;;;;;;;;;;;;;;29.51;48.15;99935.30;107729;1257;64715;-81
2023/07/30 11:09:20;;;;;;;;;;;;;;;29.65;47.97;99928.63;107776;1255;64832;-82
2023/07/30 11:11:47;;;;;;;;;;;;;;;29.78;47.24;99928.17;107738;1254;63651;-74
2023/07/30 11:14:17;;;;;;;;;;;;;;;29.88;46.61;99919.69;107777;1256;61218;-74
2023/07/30 11:16:51;;;;;;;;;;;;;;;29.91;46.02;99915.58;108661;1254;61160;-74
2023/07/30 11:19:18;;;;;;;;;;;;;;;29.97;45.75;99905.54;108279;1254;65177;-75
2023/07/30 11:21:45;;;;;;;;;;;;;;;30.07;44.74;99900.75;107899;1255;62576;-75
2023/07/30 11:24:12;;;;;;;;;;;;;;;30.13;44.28;99896.29;107974;1254;62729;-74
2023/07/30 11:26:42;;;;;;;;;;;;;;;30.23;44.12;99890.33;108479;1256;61093;-74
2023/07/30 11:29:18;;;;;;;;;;;;;;;30.38;43.84;99891.85;108493;1257;59571;-74
2023/07/30 11:31:45;;;;;;;;;;;;;;;30.53;43.74;99887.54;107793;1257;66513;-73
2023/07/30 11:34:12;;;;;;;;;;;;;;;30.63;43.28;99885.61;107660;1257;237936;-80
2023/07/30 11:36:40;;;;;;;;;;;;;;;30.70;43.20;99889.41;107628;1257;62722;-77
2023/07/30 11:39:08;;;;;;;;;;;;;;;30.75;42.59;99881.17;107795;1254;59487;-78
2023/07/30 11:41:35;;;;;;;;;;;;;;;30.77;43.05;99884.70;107871;1257;61170;-78
2023/07/30 11:44:03;;;;;;;;;;;;;;;30.83;43.12;99882.59;107807;1255;67125;-78
2023/07/30 11:46:32;;;;;;;;;;;;;;;30.89;42.84;99882.06;107840;1257;64149;-78
2023/07/30 11:49:16;;;;;;;;;;;;;;;30.94;42.43;99879.00;107772;1256;62444;-78
2023/07/30 11:51:47;;;;;;;;;;;;;;;30.99;42.43;99874.21;107829;1257;61250;-78
2023/07/30 11:54:18;;;;;;;;;;;;;;;31.02;42.11;99872.84;107758;1256;61247;-77
2023/07/30 11:56:45;;;;;;;;;;;;;;;31.07;42.01;99869.77;107817;1254;64943;-76
2023/07/30 11:59:12;;;;;;;;;;;;;;;31.05;41.64;99866.80;107910;1255;64111;-78
2023/07/30 12:01:39;;;;;;;;;;;;;;;31.02;41.95;99865.58;107823;1258;63971;-78
2023/07/30 12:04:06;;;;;;;;;;;;;;;31.03;41.98;99858.73;107910;1257;61267;-78
2023/07/30 12:06:46;;;;;;;;;;;;;;;31.09;41.82;99852.89;108169;1257;61337;-76
2023/07/30 12:09:16;;;;;;;;;;;;;;;31.18;41.46;99846.55;107902;1254;65787;-77
2023/07/30 12:11:46;;;;;;;;;;;;;;;31.31;41.31;99840.46;107931;1256;64076;-78
2023/07/30 12:14:13;;;;;;;;;;;;;;;31.47;41.08;99834.35;107729;1255;63808;-77
2023/07/30 12:16:40;;;;;;;;;;;;;;;31.56;41.11;99835.09;107889;1257;61234;-77
2023/07/30 12:19:07;;;;;;;;;;;;;;;31.67;41.09;99833.96;107921;1254;61144;-78
2023/07/30 12:21:34;;;;;;;;;;;;;;;31.80;40.43;99829.43;108039;1255;66097;-79
2023/07/30 12:24:04;;;;;;;;;;;;;;;31.88;40.29;99822.04;107804;1256;62526;-78
2023/07/30 12:26:31;;;;;;;;;;;;;;;32.03;40.45;99818.95;107884;1254;63932;-77
2023/07/30 12:28:57;;;;;;;;;;;;;;;32.17;40.26;99820.05;107663;1259;61000;-82
2023/07/30 12:31:27;;;;;;;;;;;;;;;32.31;39.88;99819.26;107801;1256;61007;-77